sensor_id;sensor_type;location;lat;lon;timestamp;pressure;altitude;pressure_sealevel;temperature;humidity
9261;BME280;4667;42.726;23.252;2022-07-29T00:01:47;95399.41;;;20.02;nan
9261;BME280;4667;42.726;23.252;2022-07-29T00:04:14;95403.19;;;19.95;nan
9261;BME280;4667;42.726;23.252;2022-07-29T00:06:41;95400.22;;;19.90;nan
9261;BME280;4667;42.726;23.252;2022-07-29T00:09:08;95394.03;;;19.98;nan
9261;BME280;4667;42.726;23.252;2022-07-29T00:11:35;95393.34;;;20.20;nan
9261;BME280;4667;42.726;23.252;2022-07-29T00:14:01;95389.38;;;20.08;nan
9261;BME280;4667;42.726;23.252;2022-07-29T00:16:30;95394.06;;;20.20;nan
9261;BME280;4667;42.726;23.252;2022-07-29T00:18:56;95390.78;;;20.25;nan
9261;BME280;4667;42.726;23.252;2022-07-29T00:21:23;95389.53;;;20.26;nan
9261;BME280;4667;42.726;23.252;2022-07-29T00:23:50;95389.25;;;20.24;nan
9261;BME280;4667;42.726;23.252;2022-07-29T00:26:17;95396.53;;;20.18;nan
9261;BME280;4667;42.726;23.252;2022-07-29T00:28:43;95406.34;;;20.07;nan
9261;BME280;4667;42.726;23.252;2022-07-29T00:31:10;95404.91;;;20.02;nan
9261;BME280;4667;42.726;23.252;2022-07-29T00:33:38;95416.38;;;19.88;nan
9261;BME280;4667;42.726;23.252;2022-07-29T00:36:06;95415.50;;;19.78;nan
9261;BME280;4667;42.726;23.252;2022-07-29T00:38:31;95425.53;;;19.47;nan
9261;BME280;4667;42.726;23.252;2022-07-29T00:40:58;95414.78;;;19.52;nan
9261;BME280;4667;42.726;23.252;2022-07-29T00:43:25;95416.91;;;19.32;nan
9261;BME280;4667;42.726;23.252;2022-07-29T00:45:52;95414.38;;;19.25;nan
9261;BME280;4667;42.726;23.252;2022-07-29T00:48:19;95411.75;;;19.09;nan
9261;BME280;4667;42.726;23.252;2022-07-29T00:50:49;95409.34;;;19.11;nan
9261;BME280;4667;42.726;23.252;2022-07-29T00:53:15;95415.75;;;18.79;nan
9261;BME280;4667;42.726;23.252;2022-07-29T00:55:42;95419.38;;;18.76;nan
9261;BME280;4667;42.726;23.252;2022-07-29T00:58:11;95418.41;;;18.95;nan
9261;BME280;4667;42.726;23.252;2022-07-29T01:00:38;95417.13;;;19.00;nan
9261;BME280;4667;42.726;23.252;2022-07-29T01:03:06;95411.47;;;18.91;nan
9261;BME280;4667;42.726;23.252;2022-07-29T01:05:33;95398.41;;;18.82;nan
9261;BME280;4667;42.726;23.252;2022-07-29T01:08:01;95394.44;;;18.83;nan
9261;BME280;4667;42.726;23.252;2022-07-29T01:10:29;95399.50;;;18.85;nan
9261;BME280;4667;42.726;23.252;2022-07-29T01:12:58;95395.91;;;18.88;nan
9261;BME280;4667;42.726;23.252;2022-07-29T01:15:26;95392.81;;;18.86;nan
9261;BME280;4667;42.726;23.252;2022-07-29T01:18:00;95389.72;;;18.84;nan
9261;BME280;4667;42.726;23.252;2022-07-29T01:20:34;95392.16;;;18.82;nan
9261;BME280;4667;42.726;23.252;2022-07-29T01:23:43;95388.59;;;18.68;nan
9261;BME280;4667;42.726;23.252;2022-07-29T01:26:33;95378.63;;;18.74;nan
9261;BME280;4667;42.726;23.252;2022-07-29T01:29:05;95376.53;;;18.79;nan
9261;BME280;4667;42.726;23.252;2022-07-29T01:31:38;95377.22;;;18.83;nan
9261;BME280;4667;42.726;23.252;2022-07-29T01:34:08;95382.91;;;18.75;nan
9261;BME280;4667;42.726;23.252;2022-07-29T01:36:43;95386.66;;;18.82;nan
9261;BME280;4667;42.726;23.252;2022-07-29T01:39:21;95372.94;;;18.82;nan
9261;BME280;4667;42.726;23.252;2022-07-29T01:41:57;95383.47;;;18.83;nan
9261;BME280;4667;42.726;23.252;2022-07-29T01:44:31;95379.44;;;18.88;nan
9261;BME280;4667;42.726;23.252;2022-07-29T01:47:12;95378.47;;;18.94;nan
9261;BME280;4667;42.726;23.252;2022-07-29T01:49:46;95376.72;;;19.00;nan
9261;BME280;4667;42.726;23.252;2022-07-29T01:52:20;95374.72;;;19.01;nan
9261;BME280;4667;42.726;23.252;2022-07-29T01:54:53;95374.28;;;19.02;nan
9261;BME280;4667;42.726;23.252;2022-07-29T01:57:27;95375.94;;;19.00;nan
9261;BME280;4667;42.726;23.252;2022-07-29T01:59:57;95373.63;;;18.98;nan
9261;BME280;4667;42.726;23.252;2022-07-29T02:02:26;95377.13;;;18.99;nan
9261;BME280;4667;42.726;23.252;2022-07-29T02:04:56;95375.16;;;18.99;nan
9261;BME280;4667;42.726;23.252;2022-07-29T02:07:25;95361.31;;;19.03;nan
9261;BME280;4667;42.726;23.252;2022-07-29T02:09:55;95368.34;;;19.04;nan
9261;BME280;4667;42.726;23.252;2022-07-29T02:12:24;95374.63;;;19.04;nan
9261;BME280;4667;42.726;23.252;2022-07-29T02:14:53;95369.69;;;19.12;nan
9261;BME280;4667;42.726;23.252;2022-07-29T02:17:26;95365.19;;;19.18;nan
9261;BME280;4667;42.726;23.252;2022-07-29T02:19:57;95362.75;;;19.20;nan
9261;BME280;4667;42.726;23.252;2022-07-29T02:22:26;95357.03;;;19.14;nan
9261;BME280;4667;42.726;23.252;2022-07-29T02:24:55;95359.69;;;19.18;nan
9261;BME280;4667;42.726;23.252;2022-07-29T02:27:23;95358.16;;;19.17;nan
9261;BME280;4667;42.726;23.252;2022-07-29T02:29:52;95354.84;;;19.22;nan
9261;BME280;4667;42.726;23.252;2022-07-29T02:32:22;95339.25;;;19.19;nan
9261;BME280;4667;42.726;23.252;2022-07-29T02:34:51;95346.94;;;19.24;nan
9261;BME280;4667;42.726;23.252;2022-07-29T02:37:19;95343.31;;;19.27;nan
9261;BME280;4667;42.726;23.252;2022-07-29T02:39:47;95345.19;;;19.30;nan
9261;BME280;4667;42.726;23.252;2022-07-29T02:42:16;95348.81;;;19.27;nan
9261;BME280;4667;42.726;23.252;2022-07-29T02:44:44;95346.28;;;19.33;nan
9261;BME280;4667;42.726;23.252;2022-07-29T02:47:17;95348.94;;;19.36;nan
9261;BME280;4667;42.726;23.252;2022-07-29T02:49:53;95336.28;;;19.39;nan
9261;BME280;4667;42.726;23.252;2022-07-29T02:52:24;95335.06;;;19.40;nan
9261;BME280;4667;42.726;23.252;2022-07-29T02:54:58;95346.19;;;19.36;nan
9261;BME280;4667;42.726;23.252;2022-07-29T02:57:32;95344.84;;;19.41;nan
9261;BME280;4667;42.726;23.252;2022-07-29T03:00:02;95344.94;;;19.37;nan
9261;BME280;4667;42.726;23.252;2022-07-29T03:02:33;95347.03;;;19.33;nan
9261;BME280;4667;42.726;23.252;2022-07-29T03:05:03;95337.59;;;19.34;nan
9261;BME280;4667;42.726;23.252;2022-07-29T03:07:31;95340.44;;;19.31;nan
9261;BME280;4667;42.726;23.252;2022-07-29T03:10:17;95348.38;;;19.29;nan
9261;BME280;4667;42.726;23.252;2022-07-29T03:12:45;95352.44;;;19.24;nan
9261;BME280;4667;42.726;23.252;2022-07-29T03:15:12;95344.72;;;19.19;nan
9261;BME280;4667;42.726;23.252;2022-07-29T03:17:40;95344.09;;;19.15;nan
9261;BME280;4667;42.726;23.252;2022-07-29T03:20:11;95348.59;;;19.09;nan
9261;BME280;4667;42.726;23.252;2022-07-29T03:22:39;95359.22;;;19.07;nan
9261;BME280;4667;42.726;23.252;2022-07-29T03:25:09;95353.84;;;19.03;nan
9261;BME280;4667;42.726;23.252;2022-07-29T03:27:36;95351.75;;;18.95;nan
9261;BME280;4667;42.726;23.252;2022-07-29T03:30:04;95355.72;;;18.94;nan
9261;BME280;4667;42.726;23.252;2022-07-29T03:32:31;95355.47;;;18.75;nan
9261;BME280;4667;42.726;23.252;2022-07-29T03:34:58;95362.06;;;18.78;nan
9261;BME280;4667;42.726;23.252;2022-07-29T03:37:26;95366.09;;;18.73;nan
9261;BME280;4667;42.726;23.252;2022-07-29T03:39:55;95365.88;;;18.68;nan
9261;BME280;4667;42.726;23.252;2022-07-29T03:42:25;95361.59;;;18.67;nan
9261;BME280;4667;42.726;23.252;2022-07-29T03:44:54;95370.59;;;18.67;nan
9261;BME280;4667;42.726;23.252;2022-07-29T03:47:26;95366.06;;;18.61;nan
9261;BME280;4667;42.726;23.252;2022-07-29T03:49:58;95372.03;;;18.72;nan
9261;BME280;4667;42.726;23.252;2022-07-29T03:52:27;95374.00;;;18.71;nan
9261;BME280;4667;42.726;23.252;2022-07-29T03:54:57;95368.84;;;18.73;nan
9261;BME280;4667;42.726;23.252;2022-07-29T03:57:27;95374.38;;;18.86;nan
9261;BME280;4667;42.726;23.252;2022-07-29T03:59:55;95379.41;;;18.75;nan
9261;BME280;4667;42.726;23.252;2022-07-29T04:02:23;95380.06;;;18.79;nan
9261;BME280;4667;42.726;23.252;2022-07-29T04:04:51;95378.28;;;18.72;nan
9261;BME280;4667;42.726;23.252;2022-07-29T04:07:18;95372.94;;;18.82;nan
9261;BME280;4667;42.726;23.252;2022-07-29T04:09:46;95373.94;;;18.88;nan
9261;BME280;4667;42.726;23.252;2022-07-29T04:12:13;95376.44;;;18.95;nan
9261;BME280;4667;42.726;23.252;2022-07-29T04:14:40;95366.59;;;18.97;nan
9261;BME280;4667;42.726;23.252;2022-07-29T04:17:07;95361.88;;;18.98;nan
9261;BME280;4667;42.726;23.252;2022-07-29T04:19:34;95363.50;;;19.08;nan
9261;BME280;4667;42.726;23.252;2022-07-29T04:22:01;95357.25;;;19.20;nan
9261;BME280;4667;42.726;23.252;2022-07-29T04:24:28;95361.00;;;19.26;nan
9261;BME280;4667;42.726;23.252;2022-07-29T04:26:56;95365.63;;;19.16;nan
9261;BME280;4667;42.726;23.252;2022-07-29T04:29:25;95373.75;;;19.20;nan
9261;BME280;4667;42.726;23.252;2022-07-29T04:31:52;95374.41;;;19.24;nan
9261;BME280;4667;42.726;23.252;2022-07-29T04:34:19;95364.41;;;19.30;nan
9261;BME280;4667;42.726;23.252;2022-07-29T04:36:46;95375.06;;;19.15;nan
9261;BME280;4667;42.726;23.252;2022-07-29T04:39:13;95376.25;;;19.14;nan
9261;BME280;4667;42.726;23.252;2022-07-29T04:41:40;95379.34;;;19.16;nan
9261;BME280;4667;42.726;23.252;2022-07-29T04:44:08;95379.44;;;19.26;nan
9261;BME280;4667;42.726;23.252;2022-07-29T04:46:35;95387.03;;;19.22;nan
9261;BME280;4667;42.726;23.252;2022-07-29T04:49:02;95388.38;;;19.17;nan
9261;BME280;4667;42.726;23.252;2022-07-29T04:51:29;95396.06;;;19.22;nan
9261;BME280;4667;42.726;23.252;2022-07-29T04:53:56;95383.41;;;19.12;nan
9261;BME280;4667;42.726;23.252;2022-07-29T04:56:23;95394.38;;;19.25;nan
9261;BME280;4667;42.726;23.252;2022-07-29T04:58:50;95392.19;;;19.32;nan
9261;BME280;4667;42.726;23.252;2022-07-29T05:01:18;95387.47;;;19.33;nan
9261;BME280;4667;42.726;23.252;2022-07-29T05:03:45;95381.88;;;19.36;nan
9261;BME280;4667;42.726;23.252;2022-07-29T05:06:12;95392.19;;;19.32;nan
9261;BME280;4667;42.726;23.252;2022-07-29T05:08:39;95397.81;;;19.41;nan
9261;BME280;4667;42.726;23.252;2022-07-29T05:11:06;95398.91;;;19.44;nan
9261;BME280;4667;42.726;23.252;2022-07-29T05:14:01;95388.81;;;19.41;nan
9261;BME280;4667;42.726;23.252;2022-07-29T05:16:43;95388.38;;;19.42;nan
9261;BME280;4667;42.726;23.252;2022-07-29T05:19:10;95383.34;;;19.53;nan
9261;BME280;4667;42.726;23.252;2022-07-29T05:21:39;95389.06;;;19.59;nan
9261;BME280;4667;42.726;23.252;2022-07-29T05:24:07;95383.44;;;19.50;nan
9261;BME280;4667;42.726;23.252;2022-07-29T05:26:47;95400.03;;;19.72;nan
9261;BME280;4667;42.726;23.252;2022-07-29T05:29:14;95393.19;;;19.76;nan
9261;BME280;4667;42.726;23.252;2022-07-29T05:31:42;95391.88;;;19.68;nan
9261;BME280;4667;42.726;23.252;2022-07-29T05:34:09;95395.94;;;19.76;nan
9261;BME280;4667;42.726;23.252;2022-07-29T05:36:36;95395.25;;;19.85;nan
9261;BME280;4667;42.726;23.252;2022-07-29T05:39:03;95393.50;;;19.91;nan
9261;BME280;4667;42.726;23.252;2022-07-29T05:41:31;95400.66;;;19.88;nan
9261;BME280;4667;42.726;23.252;2022-07-29T05:43:58;95397.00;;;19.91;nan
9261;BME280;4667;42.726;23.252;2022-07-29T05:46:25;95403.63;;;19.94;nan
9261;BME280;4667;42.726;23.252;2022-07-29T05:48:54;95404.03;;;20.05;nan
9261;BME280;4667;42.726;23.252;2022-07-29T05:51:21;95407.13;;;20.07;nan
9261;BME280;4667;42.726;23.252;2022-07-29T05:53:48;95399.47;;;20.24;nan
9261;BME280;4667;42.726;23.252;2022-07-29T05:56:15;95394.84;;;20.33;nan
9261;BME280;4667;42.726;23.252;2022-07-29T05:58:41;95401.25;;;20.52;nan
9261;BME280;4667;42.726;23.252;2022-07-29T06:01:08;95400.16;;;20.50;nan
9261;BME280;4667;42.726;23.252;2022-07-29T06:03:35;95402.22;;;20.58;nan
9261;BME280;4667;42.726;23.252;2022-07-29T06:06:04;95398.13;;;20.41;nan
9261;BME280;4667;42.726;23.252;2022-07-29T06:08:32;95404.63;;;20.56;nan
9261;BME280;4667;42.726;23.252;2022-07-29T06:10:59;95401.13;;;20.56;nan
9261;BME280;4667;42.726;23.252;2022-07-29T06:13:26;95395.31;;;20.75;nan
9261;BME280;4667;42.726;23.252;2022-07-29T06:15:53;95396.66;;;20.71;nan
9261;BME280;4667;42.726;23.252;2022-07-29T06:18:19;95399.47;;;20.80;nan
9261;BME280;4667;42.726;23.252;2022-07-29T06:20:49;95403.75;;;20.81;nan
9261;BME280;4667;42.726;23.252;2022-07-29T06:23:17;95401.31;;;21.05;nan
9261;BME280;4667;42.726;23.252;2022-07-29T06:25:44;95400.41;;;21.08;nan
9261;BME280;4667;42.726;23.252;2022-07-29T06:28:11;95382.91;;;21.24;nan
9261;BME280;4667;42.726;23.252;2022-07-29T06:30:39;95390.06;;;21.52;nan
9261;BME280;4667;42.726;23.252;2022-07-29T06:33:05;95387.03;;;21.50;nan
9261;BME280;4667;42.726;23.252;2022-07-29T06:35:33;95389.47;;;21.57;nan
9261;BME280;4667;42.726;23.252;2022-07-29T06:38:00;95382.94;;;21.73;nan
9261;BME280;4667;42.726;23.252;2022-07-29T06:40:28;95384.06;;;21.84;nan
9261;BME280;4667;42.726;23.252;2022-07-29T06:43:13;95383.19;;;21.96;nan
9261;BME280;4667;42.726;23.252;2022-07-29T06:45:39;95376.16;;;22.23;nan
9261;BME280;4667;42.726;23.252;2022-07-29T06:48:08;95374.66;;;22.22;nan
9261;BME280;4667;42.726;23.252;2022-07-29T06:50:35;95377.41;;;22.49;nan
9261;BME280;4667;42.726;23.252;2022-07-29T06:53:02;95377.69;;;22.60;nan
9261;BME280;4667;42.726;23.252;2022-07-29T06:55:30;95361.72;;;22.83;nan
9261;BME280;4667;42.726;23.252;2022-07-29T06:57:57;95365.53;;;22.94;nan
9261;BME280;4667;42.726;23.252;2022-07-29T07:00:24;95368.91;;;23.07;nan
9261;BME280;4667;42.726;23.252;2022-07-29T07:02:51;95358.91;;;23.10;nan
9261;BME280;4667;42.726;23.252;2022-07-29T07:05:18;95365.31;;;23.25;nan
9261;BME280;4667;42.726;23.252;2022-07-29T07:07:44;95360.75;;;23.13;nan
9261;BME280;4667;42.726;23.252;2022-07-29T07:10:11;95354.81;;;22.96;nan
9261;BME280;4667;42.726;23.252;2022-07-29T07:12:39;95356.13;;;23.19;nan
9261;BME280;4667;42.726;23.252;2022-07-29T07:15:06;95353.59;;;23.39;nan
9261;BME280;4667;42.726;23.252;2022-07-29T07:17:33;95354.00;;;23.56;nan
9261;BME280;4667;42.726;23.252;2022-07-29T07:20:00;95350.91;;;23.87;nan
9261;BME280;4667;42.726;23.252;2022-07-29T07:22:27;95348.63;;;24.09;nan
9261;BME280;4667;42.726;23.252;2022-07-29T07:24:53;95350.91;;;24.34;nan
9261;BME280;4667;42.726;23.252;2022-07-29T07:27:20;95347.44;;;24.49;nan
9261;BME280;4667;42.726;23.252;2022-07-29T07:29:48;95347.06;;;24.70;nan
9261;BME280;4667;42.726;23.252;2022-07-29T07:32:15;95341.47;;;24.94;nan
9261;BME280;4667;42.726;23.252;2022-07-29T07:34:42;95346.53;;;25.10;nan
9261;BME280;4667;42.726;23.252;2022-07-29T07:37:09;95341.28;;;25.12;nan
9261;BME280;4667;42.726;23.252;2022-07-29T07:39:36;95346.78;;;25.27;nan
9261;BME280;4667;42.726;23.252;2022-07-29T07:42:02;95344.56;;;25.46;nan
9261;BME280;4667;42.726;23.252;2022-07-29T07:44:29;95346.50;;;25.40;nan
9261;BME280;4667;42.726;23.252;2022-07-29T07:46:57;95340.56;;;25.47;nan
9261;BME280;4667;42.726;23.252;2022-07-29T07:49:24;95338.63;;;25.68;nan
9261;BME280;4667;42.726;23.252;2022-07-29T07:51:51;95333.78;;;25.83;nan
9261;BME280;4667;42.726;23.252;2022-07-29T07:54:18;95339.69;;;25.90;nan
9261;BME280;4667;42.726;23.252;2022-07-29T07:56:45;95332.41;;;26.13;nan
9261;BME280;4667;42.726;23.252;2022-07-29T07:59:14;95334.88;;;26.26;nan
9261;BME280;4667;42.726;23.252;2022-07-29T08:01:41;95333.53;;;26.41;nan
9261;BME280;4667;42.726;23.252;2022-07-29T08:04:09;95327.97;;;26.62;nan
9261;BME280;4667;42.726;23.252;2022-07-29T08:06:35;95328.66;;;26.57;nan
9261;BME280;4667;42.726;23.252;2022-07-29T08:09:03;95331.19;;;26.80;nan
9261;BME280;4667;42.726;23.252;2022-07-29T08:11:30;95325.25;;;26.93;nan
9261;BME280;4667;42.726;23.252;2022-07-29T08:13:57;95327.91;;;27.08;nan
9261;BME280;4667;42.726;23.252;2022-07-29T08:16:26;95336.81;;;27.17;nan
9261;BME280;4667;42.726;23.252;2022-07-29T08:18:53;95337.69;;;27.29;nan
9261;BME280;4667;42.726;23.252;2022-07-29T08:21:24;95335.56;;;27.50;nan
9261;BME280;4667;42.726;23.252;2022-07-29T08:23:51;95341.31;;;27.72;nan
9261;BME280;4667;42.726;23.252;2022-07-29T08:26:39;95334.97;;;27.72;nan
9261;BME280;4667;42.726;23.252;2022-07-29T08:29:06;95334.63;;;28.01;nan
9261;BME280;4667;42.726;23.252;2022-07-29T08:31:32;95340.00;;;28.10;nan
9261;BME280;4667;42.726;23.252;2022-07-29T08:33:59;95338.00;;;28.11;nan
9261;BME280;4667;42.726;23.252;2022-07-29T08:36:27;95335.78;;;28.20;nan
9261;BME280;4667;42.726;23.252;2022-07-29T08:38:54;95330.47;;;28.22;nan
9261;BME280;4667;42.726;23.252;2022-07-29T08:41:22;95327.97;;;28.30;nan
9261;BME280;4667;42.726;23.252;2022-07-29T08:43:49;95320.78;;;28.77;nan
9261;BME280;4667;42.726;23.252;2022-07-29T08:46:16;95324.88;;;29.09;nan
9261;BME280;4667;42.726;23.252;2022-07-29T08:48:44;95315.44;;;29.90;nan
9261;BME280;4667;42.726;23.252;2022-07-29T08:51:13;95325.22;;;30.30;nan
9261;BME280;4667;42.726;23.252;2022-07-29T08:53:43;95318.47;;;30.03;nan
9261;BME280;4667;42.726;23.252;2022-07-29T08:56:12;95318.03;;;31.04;nan
9261;BME280;4667;42.726;23.252;2022-07-29T08:58:39;95309.00;;;31.46;nan
9261;BME280;4667;42.726;23.252;2022-07-29T09:01:07;95304.28;;;31.90;nan
9261;BME280;4667;42.726;23.252;2022-07-29T09:03:36;95308.66;;;32.34;nan
9261;BME280;4667;42.726;23.252;2022-07-29T09:06:04;95305.94;;;32.85;nan
9261;BME280;4667;42.726;23.252;2022-07-29T09:08:32;95306.81;;;33.30;nan
9261;BME280;4667;42.726;23.252;2022-07-29T09:11:00;95300.75;;;33.07;nan
9261;BME280;4667;42.726;23.252;2022-07-29T09:13:28;95308.75;;;33.35;nan
9261;BME280;4667;42.726;23.252;2022-07-29T09:15:55;95301.41;;;34.03;nan
9261;BME280;4667;42.726;23.252;2022-07-29T09:18:33;95293.22;;;34.19;nan
9261;BME280;4667;42.726;23.252;2022-07-29T09:21:00;95296.88;;;34.53;nan
9261;BME280;4667;42.726;23.252;2022-07-29T09:24:00;95300.53;;;34.61;nan
9261;BME280;4667;42.726;23.252;2022-07-29T09:26:29;95294.59;;;34.99;nan
9261;BME280;4667;42.726;23.252;2022-07-29T09:28:57;95295.16;;;34.97;nan
9261;BME280;4667;42.726;23.252;2022-07-29T09:31:32;95284.94;;;35.49;nan
9261;BME280;4667;42.726;23.252;2022-07-29T09:33:59;95290.09;;;36.07;nan
9261;BME280;4667;42.726;23.252;2022-07-29T09:36:26;95283.94;;;36.45;nan
9261;BME280;4667;42.726;23.252;2022-07-29T09:39:00;95285.78;;;36.34;nan
9261;BME280;4667;42.726;23.252;2022-07-29T09:41:29;95285.78;;;36.86;nan
9261;BME280;4667;42.726;23.252;2022-07-29T09:43:57;95284.19;;;36.62;nan
9261;BME280;4667;42.726;23.252;2022-07-29T09:46:25;95279.28;;;36.62;nan
9261;BME280;4667;42.726;23.252;2022-07-29T09:49:08;95276.25;;;36.60;nan
9261;BME280;4667;42.726;23.252;2022-07-29T09:51:35;95275.22;;;36.35;nan
9261;BME280;4667;42.726;23.252;2022-07-29T09:54:21;95272.50;;;36.58;nan
9261;BME280;4667;42.726;23.252;2022-07-29T09:56:49;95265.84;;;36.48;nan
9261;BME280;4667;42.726;23.252;2022-07-29T09:59:16;95271.00;;;36.57;nan
9261;BME280;4667;42.726;23.252;2022-07-29T10:01:46;95269.97;;;36.83;nan
9261;BME280;4667;42.726;23.252;2022-07-29T10:04:13;95265.66;;;36.89;nan
9261;BME280;4667;42.726;23.252;2022-07-29T10:06:55;95268.34;;;36.59;nan
9261;BME280;4667;42.726;23.252;2022-07-29T10:09:22;95258.94;;;36.56;nan
9261;BME280;4667;42.726;23.252;2022-07-29T10:12:07;95254.59;;;37.06;nan
9261;BME280;4667;42.726;23.252;2022-07-29T10:14:35;95255.50;;;36.94;nan
9261;BME280;4667;42.726;23.252;2022-07-29T10:17:03;95249.97;;;36.73;nan
9261;BME280;4667;42.726;23.252;2022-07-29T10:19:31;95242.38;;;37.34;nan
9261;BME280;4667;42.726;23.252;2022-07-29T10:21:59;95247.53;;;36.77;nan
9261;BME280;4667;42.726;23.252;2022-07-29T10:24:27;95242.69;;;36.93;nan
9261;BME280;4667;42.726;23.252;2022-07-29T10:26:55;95232.22;;;37.24;nan
9261;BME280;4667;42.726;23.252;2022-07-29T10:29:24;95239.19;;;37.53;nan
9261;BME280;4667;42.726;23.252;2022-07-29T10:32:07;95233.13;;;37.79;nan
9261;BME280;4667;42.726;23.252;2022-07-29T10:34:53;95230.28;;;38.10;nan
9261;BME280;4667;42.726;23.252;2022-07-29T10:37:31;95220.94;;;38.32;nan
9261;BME280;4667;42.726;23.252;2022-07-29T10:40:08;95221.66;;;38.48;nan
9261;BME280;4667;42.726;23.252;2022-07-29T10:42:53;95213.53;;;38.44;nan
9261;BME280;4667;42.726;23.252;2022-07-29T10:45:22;95207.09;;;38.51;nan
9261;BME280;4667;42.726;23.252;2022-07-29T10:48:03;95207.91;;;38.76;nan
9261;BME280;4667;42.726;23.252;2022-07-29T10:50:52;95208.09;;;38.78;nan
9261;BME280;4667;42.726;23.252;2022-07-29T10:53:19;95195.19;;;38.93;nan
9261;BME280;4667;42.726;23.252;2022-07-29T10:55:46;95191.59;;;38.60;nan
9261;BME280;4667;42.726;23.252;2022-07-29T10:58:16;95193.59;;;39.07;nan
9261;BME280;4667;42.726;23.252;2022-07-29T11:00:46;95187.38;;;39.01;nan
9261;BME280;4667;42.726;23.252;2022-07-29T11:03:43;95185.31;;;38.69;nan
9261;BME280;4667;42.726;23.252;2022-07-29T11:06:11;95185.88;;;39.00;nan
9261;BME280;4667;42.726;23.252;2022-07-29T11:08:38;95174.88;;;39.29;nan
9261;BME280;4667;42.726;23.252;2022-07-29T11:11:35;95174.19;;;39.45;nan
9261;BME280;4667;42.726;23.252;2022-07-29T11:14:06;95171.59;;;39.40;nan
9261;BME280;4667;42.726;23.252;2022-07-29T11:17:01;95167.94;;;39.47;nan
9261;BME280;4667;42.726;23.252;2022-07-29T11:19:29;95171.13;;;39.26;nan
9261;BME280;4667;42.726;23.252;2022-07-29T11:21:56;95172.53;;;39.17;nan
9261;BME280;4667;42.726;23.252;2022-07-29T11:24:24;95157.84;;;39.11;nan
9261;BME280;4667;42.726;23.252;2022-07-29T11:27:11;95160.41;;;40.01;nan
9261;BME280;4667;42.726;23.252;2022-07-29T11:29:40;95160.84;;;39.80;nan
9261;BME280;4667;42.726;23.252;2022-07-29T11:32:16;95155.41;;;39.92;nan
9261;BME280;4667;42.726;23.252;2022-07-29T11:34:45;95160.06;;;39.63;nan
9261;BME280;4667;42.726;23.252;2022-07-29T11:37:21;95167.59;;;39.18;nan
9261;BME280;4667;42.726;23.252;2022-07-29T11:40:15;95155.19;;;39.38;nan
9261;BME280;4667;42.726;23.252;2022-07-29T11:42:48;95157.59;;;39.17;nan
9261;BME280;4667;42.726;23.252;2022-07-29T11:45:25;95150.41;;;39.41;nan
9261;BME280;4667;42.726;23.252;2022-07-29T11:47:59;95154.19;;;39.43;nan
9261;BME280;4667;42.726;23.252;2022-07-29T11:50:28;95149.34;;;39.53;nan
9261;BME280;4667;42.726;23.252;2022-07-29T11:52:55;95151.31;;;40.03;nan
9261;BME280;4667;42.726;23.252;2022-07-29T11:55:23;95139.75;;;40.18;nan
9261;BME280;4667;42.726;23.252;2022-07-29T11:57:52;95136.75;;;39.98;nan
9261;BME280;4667;42.726;23.252;2022-07-29T12:00:25;95132.78;;;39.67;nan
9261;BME280;4667;42.726;23.252;2022-07-29T12:02:52;95139.50;;;40.06;nan
9261;BME280;4667;42.726;23.252;2022-07-29T12:05:21;95130.47;;;40.17;nan
9261;BME280;4667;42.726;23.252;2022-07-29T12:08:04;95142.09;;;40.29;nan
9261;BME280;4667;42.726;23.252;2022-07-29T12:10:31;95135.63;;;39.84;nan
9261;BME280;4667;42.726;23.252;2022-07-29T12:12:58;95128.16;;;40.06;nan
9261;BME280;4667;42.726;23.252;2022-07-29T12:15:24;95127.22;;;40.38;nan
9261;BME280;4667;42.726;23.252;2022-07-29T12:17:51;95124.28;;;40.46;nan
9261;BME280;4667;42.726;23.252;2022-07-29T12:20:24;95124.50;;;40.57;nan
9261;BME280;4667;42.726;23.252;2022-07-29T12:22:51;95134.72;;;40.70;nan
9261;BME280;4667;42.726;23.252;2022-07-29T12:25:19;95122.78;;;40.45;nan
9261;BME280;4667;42.726;23.252;2022-07-29T12:27:46;95133.31;;;40.34;nan
9261;BME280;4667;42.726;23.252;2022-07-29T12:30:14;95129.75;;;40.88;nan
9261;BME280;4667;42.726;23.252;2022-07-29T12:32:43;95125.03;;;40.73;nan
9261;BME280;4667;42.726;23.252;2022-07-29T12:35:12;95126.00;;;41.31;nan
9261;BME280;4667;42.726;23.252;2022-07-29T12:37:44;95120.31;;;41.31;nan
9261;BME280;4667;42.726;23.252;2022-07-29T12:40:14;95113.78;;;41.02;nan
9261;BME280;4667;42.726;23.252;2022-07-29T12:43:05;95114.13;;;40.52;nan
9261;BME280;4667;42.726;23.252;2022-07-29T12:45:32;95118.13;;;40.66;nan
9261;BME280;4667;42.726;23.252;2022-07-29T12:47:59;95106.00;;;40.39;nan
9261;BME280;4667;42.726;23.252;2022-07-29T12:50:26;95101.28;;;40.51;nan
9261;BME280;4667;42.726;23.252;2022-07-29T12:52:54;95104.50;;;40.65;nan
9261;BME280;4667;42.726;23.252;2022-07-29T12:55:41;95090.63;;;40.69;nan
9261;BME280;4667;42.726;23.252;2022-07-29T12:58:09;95095.06;;;40.99;nan
9261;BME280;4667;42.726;23.252;2022-07-29T13:00:36;95082.50;;;40.92;nan
9261;BME280;4667;42.726;23.252;2022-07-29T13:03:03;95087.88;;;40.61;nan
9261;BME280;4667;42.726;23.252;2022-07-29T13:05:41;95087.34;;;41.18;nan
9261;BME280;4667;42.726;23.252;2022-07-29T13:08:14;95087.28;;;40.63;nan
9261;BME280;4667;42.726;23.252;2022-07-29T13:10:41;95080.06;;;40.89;nan
9261;BME280;4667;42.726;23.252;2022-07-29T13:13:09;95082.50;;;41.02;nan
9261;BME280;4667;42.726;23.252;2022-07-29T13:15:37;95086.44;;;41.06;nan
9261;BME280;4667;42.726;23.252;2022-07-29T13:18:05;95074.34;;;41.15;nan
9261;BME280;4667;42.726;23.252;2022-07-29T13:20:52;95072.44;;;41.47;nan
9261;BME280;4667;42.726;23.252;2022-07-29T13:23:20;95069.53;;;41.18;nan
9261;BME280;4667;42.726;23.252;2022-07-29T13:25:47;95069.53;;;41.08;nan
9261;BME280;4667;42.726;23.252;2022-07-29T13:28:14;95071.63;;;41.08;nan
9261;BME280;4667;42.726;23.252;2022-07-29T13:30:41;95065.75;;;41.52;nan
9261;BME280;4667;42.726;23.252;2022-07-29T13:33:09;95060.31;;;40.81;nan
9261;BME280;4667;42.726;23.252;2022-07-29T13:35:37;95062.25;;;40.88;nan
9261;BME280;4667;42.726;23.252;2022-07-29T13:38:03;95057.31;;;40.52;nan
9261;BME280;4667;42.726;23.252;2022-07-29T13:40:32;95056.91;;;40.02;nan
9261;BME280;4667;42.726;23.252;2022-07-29T13:43:00;95057.47;;;40.01;nan
9261;BME280;4667;42.726;23.252;2022-07-29T13:45:27;95054.00;;;40.46;nan
9261;BME280;4667;42.726;23.252;2022-07-29T13:47:56;95045.63;;;40.38;nan